Monterey, CA

2:14 AM PDT on August 28, 2014 (GMT -0700)
Monterey Peninsula | Change Station
CLOSE
Current Station
Airport
Location: Monterey,
Elevation: 253 ft
Nearby Weather Stations

Elev 253 ft 36.59 °N, 121.84 °W | Updated 20 minutes ago

Overcast
Overcast
60 °F
Feels Like 60 °F
N
4
Wind Variable Wind from ESE

Today
High -- | Low -- °F
--% Chance of Precip.
Yesterday
High -- | Low -- °F
Precip. -- in
6:35 AM 7:41 PM
Waxing Crescent, 7% visible
Pressure 30.11 in
Visibility 10.0 miles
Clouds Overcast 800 ft
Dew Point 56 °F
Humidity 86%
Rainfall 0.00 in
Snow Depth Not available.
UV 0 out of 12
Pollen 7.00 out of 12
Air Quality Not available.
Flu Activity Not available.
METAR KMRY 280854Z AUTO 11003KT 10SM OVC008 16/13 A3008 RMK AO2 SLP195 T01560133 58003

More Conditions Fewer Conditions

Pressure 30.11 in
Visibility 10.0 miles
Clouds Overcast 800 ft
Dew Point 56 °F
Humidity 86%
Rainfall 0.00 in
Snow Depth Not available.
UV 0 out of 12
Pollen 7.00 out of 12
Air Quality Not available.
Flu Activity Not available.
METAR KMRY 280854Z AUTO 11003KT 10SM OVC008 16/13 A3008 RMK AO2 SLP195 T01560133 58003

More Conditions Fewer Conditions

10-Day Weather Forecast

Almanac

Astronomy

Aug. 28, 2014 Rise Set
Actual Time 6:35 AM PDT 7:41 PM PDT
Civil Twilight 6:08 AM PDT 8:07 PM PDT
Nautical Twilight 5:37 AM PDT 8:39 PM PDT
Astronomical Twilight 5:04 AM PDT 9:11 PM PDT
Moon 9:27 AM PDT 9:14 PM PDT
Length of Visible Light 13h 58m
Length of Day
13h 05m
Tomorrow will be 2m 12s shorter.
Waxing Crescent, 7% of the Moon is Illuminated
Today
Waxing Crescent
Sep 2
First Quarter
Sep 8
Full
Sep 15
Last Quarter
Sep 24
New

Today's Extremes

State Highs State Lows

Community

WunderPhotos

Upload Photos

1,747,918 photos uploaded!

Nearby

Snow Depth

Station Depth Elevation
Leavitt Lake 1 in 9400 ft
Leavitt Meadows 1 in 7200 ft
Blue Lakes 0 in 8000 ft
Forestdale Creek 0 in 8029 ft
Summit Meadow 1 in 9122 ft

Earthquake Activity

City Distance Mag. Time & Date
Napa, California 117 miles 2.6 11:57 AM PDT
2014-08-27
Soledad, California 40 miles 2.6 12:15 PM PDT
2014-08-26
Napa, California 117 miles 2.5 10:56 AM PDT
2014-08-26
Napa, California 117 miles 3.0 6:45 AM PDT
2014-08-26
Minimum magnitude displayed is 2.5.

Coastal Water Temperatures

Place Temperature
Monterey, CA 64.9 °F
Redwood City, CA 73.0 °F

Nearby Weather Stations